Time;durP1;ratioP1;P1;durP2;ratioP2;P2;SDS_P1;SDS_P2;PMS_P1;PMS_P2;Temp;Humidity;BMP_temperature;BMP_pressure;BME280_temperature;BME280_humidity;BME280_pressure;Samples;Min_cycle;Max_cycle;Signal;HPM_P1;HPM_P2
2023/07/03 00:02:05;;;;;;;16.98;3.20;;;17.50;75.10;;;;;;5056812;28;20090;-83
2023/07/03 00:04:35;;;;;;;12.63;3.28;;;17.60;75.10;;;;;;5055622;28;20120;-83
2023/07/03 00:07:02;;;;;;;17.13;3.50;;;17.60;75.00;;;;;;5056833;28;20112;-84
2023/07/03 00:09:28;;;;;;;10.60;2.72;;;17.60;75.10;;;;;;5056670;28;20025;-83
2023/07/03 00:11:54;;;;;;;14.45;3.40;;;17.50;74.90;;;;;;5055346;28;20037;-83
2023/07/03 00:14:20;;;;;;;18.23;3.30;;;17.50;75.10;;;;;;5055296;28;20496;-80
2023/07/03 00:16:46;;;;;;;13.05;3.40;;;17.50;75.10;;;;;;5055385;28;20025;-79
2023/07/03 00:19:13;;;;;;;16.65;3.45;;;17.50;74.80;;;;;;5055288;28;20044;-84
2023/07/03 00:21:43;;;;;;;16.40;3.33;;;17.50;74.80;;;;;;5056566;28;20033;-83
2023/07/03 00:24:11;;;;;;;10.27;2.85;;;17.40;74.80;;;;;;5054967;28;20041;-82
2023/07/03 00:26:38;;;;;;;13.77;2.65;;;17.40;74.70;;;;;;5054959;28;20043;-83
2023/07/03 00:29:04;;;;;;;12.48;2.63;;;17.40;74.60;;;;;;5038731;28;20037;-83
2023/07/03 00:31:29;;;;;;;11.80;2.95;;;17.40;74.70;;;;;;5053758;28;20613;-83
2023/07/03 00:33:55;;;;;;;11.68;2.88;;;17.40;74.80;;;;;;5055055;28;20052;-81
2023/07/03 00:36:21;;;;;;;15.30;3.40;;;17.30;74.70;;;;;;5054842;28;20039;-83
2023/07/03 00:38:46;;;;;;;11.07;2.53;;;17.30;74.90;;;;;;5055192;28;20037;-83
2023/07/03 00:41:12;;;;;;;16.05;3.63;;;17.30;74.80;;;;;;5038404;28;20366;-83
2023/07/03 00:43:42;;;;;;;15.60;3.72;;;17.30;75.00;;;;;;5056700;28;20500;-83
2023/07/03 00:46:11;;;;;;;13.55;2.80;;;17.20;74.80;;;;;;5057223;28;20029;-83
2023/07/03 00:48:40;;;;;;;15.45;3.63;;;17.30;74.90;;;;;;5056446;28;20052;-82
2023/07/03 00:51:06;;;;;;;9.93;2.33;;;17.20;74.90;;;;;;5054761;28;20047;-83
2023/07/03 00:53:31;;;;;;;13.20;2.45;;;17.30;75.00;;;;;;5056516;28;20017;-82
2023/07/03 00:55:57;;;;;;;16.17;2.97;;;17.20;74.80;;;;;;5056546;28;20036;-83
2023/07/03 00:58:23;;;;;;;13.73;3.10;;;17.30;75.00;;;;;;5054674;28;20029;-84
2023/07/03 01:00:58;;;;;;;11.95;2.53;;;17.20;75.00;;;;;;5055014;28;20033;-84
2023/07/03 01:03:37;;;;;;;17.00;3.55;;;17.20;75.00;;;;;;5056676;28;20408;-84
2023/07/03 01:06:06;;;;;;;14.18;3.33;;;17.20;74.90;;;;;;5056020;28;20476;-82
2023/07/03 01:08:32;;;;;;;18.42;3.72;;;17.20;74.80;;;;;;5056198;28;20025;-82
2023/07/03 01:10:58;;;;;;;13.73;3.40;;;17.20;74.70;;;;;;5054983;28;20027;-81
2023/07/03 01:13:28;;;;;;;14.95;2.75;;;17.10;74.60;;;;;;5055829;28;20029;-82
2023/07/03 01:15:55;;;;;;;12.40;2.50;;;17.10;74.60;;;;;;5056090;28;20030;-81
2023/07/03 01:18:22;;;;;;;13.90;2.60;;;17.10;74.60;;;;;;5054623;28;20017;-83
2023/07/03 01:21:04;;;;;;;15.13;2.95;;;17.00;74.60;;;;;;5054500;28;20397;-83
2023/07/03 01:23:33;;;;;;;20.35;4.00;;;17.10;74.60;;;;;;5055264;28;20482;-83
2023/07/03 01:25:59;;;;;;;14.40;3.58;;;17.10;74.60;;;;;;5055594;28;20114;-82
2023/07/03 01:28:26;;;;;;;12.73;3.17;;;17.00;74.70;;;;;;5055744;28;20092;-83
2023/07/03 01:30:54;;;;;;;11.75;3.55;;;17.00;74.80;;;;;;5054216;28;20025;-82
2023/07/03 01:33:33;;;;;;;17.45;3.33;;;16.90;74.90;;;;;;5054143;28;20022;-82
2023/07/03 01:35:59;;;;;;;19.00;3.75;;;16.90;75.10;;;;;;5055872;28;20028;-83
2023/07/03 01:38:27;;;;;;;14.65;2.85;;;16.90;75.20;;;;;;5054092;28;20052;-83
2023/07/03 01:40:53;;;;;;;22.10;3.63;;;16.80;75.30;;;;;;5054878;28;20469;-83
2023/07/03 01:43:20;;;;;;;15.07;2.80;;;16.80;75.40;;;;;;5053910;28;20037;-83
2023/07/03 01:45:48;;;;;;;16.52;3.20;;;16.70;75.50;;;;;;5055353;28;20116;-84
2023/07/03 01:48:15;;;;;;;18.50;3.13;;;16.70;75.50;;;;;;5053763;28;20108;-83
2023/07/03 01:50:42;;;;;;;14.68;3.17;;;16.60;75.80;;;;;;5055058;28;20469;-83
2023/07/03 01:53:28;;;;;;;17.73;4.18;;;16.60;76.00;;;;;;5055170;28;20033;-81
2023/07/03 01:56:17;;;;;;;18.38;3.42;;;16.60;76.00;;;;;;5054074;28;20107;-83
2023/07/03 01:58:48;;;;;;;20.23;4.65;;;16.60;76.10;;;;;;5054912;28;20017;-83
2023/07/03 02:01:41;;;;;;;16.58;3.33;;;16.60;76.30;;;;;;5054632;28;20057;-84
2023/07/03 02:04:33;;;;;;;10.98;2.80;;;16.60;76.30;;;;;;5054601;28;20104;-83
2023/07/03 02:07:00;;;;;;;18.02;3.38;;;16.60;76.20;;;;;;5053363;28;20492;-83
2023/07/03 02:09:26;;;;;;;11.70;3.10;;;16.60;76.30;;;;;;5053614;28;20033;-84
2023/07/03 02:11:53;;;;;;;16.05;3.22;;;16.60;76.40;;;;;;5055065;28;20031;-83
2023/07/03 02:14:18;;;;;;;19.60;3.10;;;16.50;76.40;;;;;;5053170;28;20017;-83
2023/07/03 02:16:47;;;;;;;17.27;3.10;;;16.50;76.60;;;;;;5053802;28;20028;-82
2023/07/03 02:19:15;;;;;;;13.85;3.30;;;16.50;76.80;;;;;;5053063;28;20017;-76
2023/07/03 02:21:43;;;;;;;11.88;2.78;;;16.50;76.80;;;;;;5053802;28;20366;-76
2023/07/03 02:24:10;;;;;;;14.32;3.22;;;16.50;77.60;;;;;;5052554;28;20397;-75
2023/07/03 02:26:35;;;;;;;18.75;3.80;;;16.40;77.50;;;;;;5052939;28;20021;-75
2023/07/03 02:29:01;;;;;;;18.15;3.53;;;16.50;77.00;;;;;;5052558;28;20052;-75
2023/07/03 02:31:27;;;;;;;16.80;3.80;;;16.40;77.10;;;;;;5036024;28;20112;-75
2023/07/03 02:33:52;;;;;;;14.15;3.42;;;16.40;77.40;;;;;;5035840;28;20388;-73
2023/07/03 02:36:18;;;;;;;22.50;3.67;;;16.40;77.50;;;;;;5053706;28;20033;-75
2023/07/03 02:38:43;;;;;;;27.25;5.25;;;16.40;77.60;;;;;;5035942;28;20036;-75
2023/07/03 02:41:10;;;;;;;14.93;2.88;;;16.40;77.90;;;;;;5052409;28;20071;-75
2023/07/03 02:43:36;;;;;;;17.25;3.53;;;16.40;77.70;;;;;;5053580;28;20112;-75
2023/07/03 02:46:06;;;;;;;22.33;4.75;;;16.40;78.20;;;;;;5052375;28;20049;-75
2023/07/03 02:48:32;;;;;;;20.10;3.55;;;16.30;78.20;;;;;;5053664;28;20056;-75
2023/07/03 02:50:57;;;;;;;17.63;4.43;;;16.30;78.40;;;;;;5051986;28;20520;-76
2023/07/03 02:53:23;;;;;;;16.13;2.70;;;16.30;78.50;;;;;;5035213;28;20124;-74
2023/07/03 02:55:55;;;;;;;16.73;3.53;;;16.30;79.10;;;;;;5052424;28;20095;-76
2023/07/03 02:58:20;;;;;;;19.83;3.92;;;16.30;79.20;;;;;;5034966;28;20548;-76
2023/07/03 03:00:50;;;;;;;24.35;4.50;;;16.30;79.40;;;;;;5034600;28;20111;-75
2023/07/03 03:03:15;;;;;;;16.25;3.50;;;16.30;80.30;;;;;;5051580;28;20112;-76
2023/07/03 03:05:41;;;;;;;16.42;3.42;;;16.30;79.90;;;;;;5051815;28;20067;-75
2023/07/03 03:08:07;;;;;;;16.15;3.55;;;16.30;80.10;;;;;;5051878;28;20021;-75
2023/07/03 03:10:33;;;;;;;17.92;4.15;;;16.30;80.10;;;;;;5051424;28;20033;-74
2023/07/03 03:12:59;;;;;;;33.13;3.92;;;16.20;80.30;;;;;;5052021;28;20044;-76
2023/07/03 03:15:26;;;;;;;22.55;3.85;;;16.30;80.70;;;;;;5052458;28;20101;-75
2023/07/03 03:17:52;;;;;;;14.25;3.80;;;16.30;80.80;;;;;;5053208;28;20021;-75
2023/07/03 03:20:18;;;;;;;21.75;3.70;;;16.30;81.00;;;;;;5053275;28;20029;-76
2023/07/03 03:22:44;;;;;;;18.15;4.78;;;16.30;81.70;;;;;;5052039;28;20477;-76
2023/07/03 03:25:09;;;;;;;18.35;4.65;;;16.30;81.90;;;;;;5052033;28;20040;-76
2023/07/03 03:27:35;;;;;;;23.55;3.88;;;16.20;82.40;;;;;;5051878;28;20025;-76
2023/07/03 03:30:01;;;;;;;21.48;5.00;;;16.20;82.90;;;;;;5053314;28;20466;-75
2023/07/03 03:32:27;;;;;;;15.13;3.83;;;16.20;83.30;;;;;;5053117;28;20037;-76
2023/07/03 03:34:52;;;;;;;19.30;4.43;;;16.20;83.10;;;;;;5035143;28;20017;-76
2023/07/03 03:37:18;;;;;;;24.80;4.32;;;16.20;84.20;;;;;;5035086;28;20112;-76
2023/07/03 03:39:44;;;;;;;23.33;5.07;;;16.20;84.90;;;;;;5051793;28;20376;-76
2023/07/03 03:42:09;;;;;;;25.77;4.85;;;16.10;85.10;;;;;;5051665;28;20035;-76
2023/07/03 03:44:36;;;;;;;27.95;6.05;;;16.10;85.40;;;;;;5053464;28;20035;-75
2023/07/03 03:47:02;;;;;;;20.90;4.75;;;16.10;85.90;;;;;;5052896;28;20068;-76
2023/07/03 03:49:28;;;;;;;19.83;4.70;;;16.10;85.60;;;;;;5035229;28;20441;-75
2023/07/03 03:51:54;;;;;;;25.35;4.50;;;16.10;85.90;;;;;;5052687;28;20085;-75
2023/07/03 03:54:20;;;;;;;16.67;4.15;;;16.10;86.50;;;;;;5052996;28;20021;-76
2023/07/03 03:56:46;;;;;;;25.77;5.82;;;16.10;86.20;;;;;;5035068;28;20025;-75
2023/07/03 03:59:12;;;;;;;24.77;5.70;;;16.10;86.80;;;;;;5035013;28;20032;-75
2023/07/03 04:01:38;;;;;;;26.83;5.88;;;16.10;87.00;;;;;;5052652;28;20033;-75
2023/07/03 04:04:04;;;;;;;27.27;6.13;;;16.00;87.30;;;;;;5051764;28;20528;-74
2023/07/03 04:06:30;;;;;;;23.80;5.57;;;16.10;87.10;;;;;;5056552;28;20037;-75
2023/07/03 04:08:58;;;;;;;23.85;5.85;;;16.10;88.20;;;;;;5055365;28;20029;-75
2023/07/03 04:11:25;;;;;;;22.30;5.75;;;16.10;88.10;;;;;;5038876;28;20029;-76
2023/07/03 04:13:51;;;;;;;20.98;5.28;;;16.10;88.10;;;;;;5037825;28;20078;-75
2023/07/03 04:16:16;;;;;;;23.85;4.55;;;16.10;88.20;;;;;;5056048;28;20036;-76
2023/07/03 04:18:42;;;;;;;23.45;4.85;;;16.00;88.10;;;;;;5052995;28;20080;-75
2023/07/03 04:21:08;;;;;;;20.40;4.68;;;16.10;88.20;;;;;;5055262;28;20025;-74
2023/07/03 04:23:33;;;;;;;24.10;5.47;;;16.00;88.20;;;;;;5054779;28;20033;-74
2023/07/03 04:26:00;;;;;;;18.95;4.38;;;16.00;88.30;;;;;;5034273;28;20559;-74
2023/07/03 04:28:26;;;;;;;19.27;4.10;;;16.00;88.20;;;;;;5055215;28;20037;-74
2023/07/03 04:30:52;;;;;;;22.25;5.07;;;16.00;88.10;;;;;;5036829;28;20079;-76
2023/07/03 04:33:17;;;;;;;25.08;5.07;;;16.00;88.20;;;;;;5055860;28;20408;-75
2023/07/03 04:35:44;;;;;;;19.58;4.50;;;16.00;88.50;;;;;;5038305;28;20025;-76
2023/07/03 04:38:10;;;;;;;31.48;5.13;;;16.00;88.70;;;;;;5055926;28;20065;-76
2023/07/03 04:40:37;;;;;;;22.38;4.65;;;16.00;88.70;;;;;;5055256;28;20406;-76
2023/07/03 04:43:02;;;;;;;29.92;4.80;;;16.00;88.90;;;;;;5055931;28;20060;-77
2023/07/03 04:45:31;;;;;;;19.98;4.13;;;16.00;88.80;;;;;;5056391;28;20066;-76
2023/07/03 04:47:56;;;;;;;22.45;4.93;;;16.00;88.90;;;;;;5055778;28;20063;-76
2023/07/03 04:50:24;;;;;;;24.55;4.70;;;16.00;89.30;;;;;;5055444;28;20494;-76
2023/07/03 04:52:51;;;;;;;21.48;4.65;;;16.00;89.40;;;;;;5054685;28;20112;-76
2023/07/03 04:55:17;;;;;;;23.27;4.47;;;16.00;89.30;;;;;;5056243;28;20021;-75
2023/07/03 04:57:43;;;;;;;17.23;4.65;;;16.00;89.50;;;;;;5055668;28;20032;-76
2023/07/03 05:00:15;;;;;;;19.85;4.28;;;16.00;89.40;;;;;;5055320;28;20021;-76
2023/07/03 05:02:44;;;;;;;28.85;4.75;;;16.00;89.50;;;;;;5054086;28;20032;-76
2023/07/03 05:05:10;;;;;;;23.33;4.88;;;16.00;89.60;;;;;;5054131;28;20036;-77
2023/07/03 05:07:37;;;;;;;21.95;5.13;;;16.00;89.50;;;;;;5054268;28;20067;-76
2023/07/03 05:10:03;;;;;;;21.98;6.03;;;16.00;89.90;;;;;;5055251;28;20045;-76
2023/07/03 05:12:29;;;;;;;28.60;5.20;;;16.00;90.00;;;;;;5054025;28;20562;-74
2023/07/03 05:14:56;;;;;;;28.92;5.82;;;16.00;90.00;;;;;;5053700;28;20029;-75
2023/07/03 05:17:22;;;;;;;22.85;6.43;;;16.00;90.10;;;;;;5053702;28;20029;-75
2023/07/03 05:19:48;;;;;;;19.02;4.47;;;16.00;90.20;;;;;;5034137;28;20103;-74
2023/07/03 05:22:14;;;;;;;26.83;5.57;;;16.00;90.30;;;;;;5045002;28;20032;-75
2023/07/03 05:24:40;;;;;;;26.85;5.35;;;16.00;90.30;;;;;;5037075;28;20036;-75
2023/07/03 05:27:05;;;;;;;25.13;4.75;;;16.10;90.40;;;;;;5053824;28;20028;-75
2023/07/03 05:29:32;;;;;;;27.75;4.97;;;16.00;90.40;;;;;;5051726;28;20030;-75
2023/07/03 05:32:00;;;;;;;22.70;5.68;;;16.00;90.40;;;;;;5049949;28;20028;-74
2023/07/03 05:34:26;;;;;;;19.08;4.35;;;16.10;90.60;;;;;;5046069;28;20026;-74
2023/07/03 05:36:53;;;;;;;24.67;6.22;;;16.10;90.60;;;;;;5043891;28;20094;-75
2023/07/03 05:39:18;;;;;;;19.98;4.40;;;16.10;90.60;;;;;;5045196;28;20034;-75
2023/07/03 05:41:44;;;;;;;25.05;4.70;;;16.10;90.70;;;;;;5042616;28;20037;-77
2023/07/03 05:44:09;;;;;;;27.65;5.60;;;16.10;90.70;;;;;;5044260;28;20170;-76
2023/07/03 05:46:35;;;;;;;19.98;5.40;;;16.20;90.70;;;;;;5024752;28;20505;-75
2023/07/03 05:49:01;;;;;;;23.25;5.28;;;16.20;90.70;;;;;;5047955;28;20028;-75
2023/07/03 05:51:26;;;;;;;31.02;5.90;;;16.20;90.60;;;;;;5046711;28;20053;-75
2023/07/03 05:53:53;;;;;;;19.80;4.38;;;16.30;90.70;;;;;;5043320;28;20095;-82
2023/07/03 05:56:19;;;;;;;20.65;4.85;;;16.30;90.80;;;;;;5035434;28;20037;-82
2023/07/03 05:58:44;;;;;;;18.65;4.88;;;16.30;90.70;;;;;;5034694;28;20418;-80
2023/07/03 06:01:10;;;;;;;24.92;5.30;;;16.40;90.70;;;;;;5034807;28;20144;-82
2023/07/03 06:03:36;;;;;;;18.83;4.90;;;16.40;90.60;;;;;;5018239;28;20367;-79
2023/07/03 06:06:04;;;;;;;22.73;4.38;;;16.50;90.60;;;;;;5019639;28;20026;-84
2023/07/03 06:08:30;;;;;;;24.98;5.60;;;16.50;90.50;;;;;;5020927;28;20052;-84
2023/07/03 06:10:56;;;;;;;17.90;4.60;;;16.60;90.50;;;;;;5036841;28;20026;-83
2023/07/03 06:13:22;;;;;;;20.75;4.03;;;16.70;90.50;;;;;;5041779;28;20055;-82
2023/07/03 06:15:48;;;;;;;21.63;4.85;;;16.70;90.50;;;;;;5054506;28;20124;-80
2023/07/03 06:18:14;;;;;;;21.42;5.13;;;16.70;90.50;;;;;;5053773;28;20068;-80
2023/07/03 06:20:40;;;;;;;17.75;4.50;;;16.70;90.50;;;;;;5053380;28;20044;-80
2023/07/03 06:23:06;;;;;;;22.13;4.55;;;16.80;90.50;;;;;;5052895;28;20025;-81
2023/07/03 06:25:32;;;;;;;18.58;4.55;;;16.80;90.50;;;;;;5053617;28;20031;-81
2023/07/03 06:27:58;;;;;;;18.80;4.63;;;16.90;90.40;;;;;;5052551;28;20029;-80
2023/07/03 06:30:24;;;;;;;19.23;5.13;;;16.90;90.30;;;;;;5053988;28;20079;-80
2023/07/03 06:32:49;;;;;;;17.15;3.67;;;16.90;90.30;;;;;;5052562;28;20040;-80
2023/07/03 06:35:16;;;;;;;20.40;4.72;;;17.00;90.30;;;;;;5055077;28;20049;-78
2023/07/03 06:37:42;;;;;;;18.15;3.55;;;17.00;90.20;;;;;;5052131;28;20025;-82
2023/07/03 06:40:12;;;;;;;18.02;4.07;;;17.00;90.10;;;;;;5038092;28;20075;-80
2023/07/03 06:42:38;;;;;;;17.92;4.00;;;17.00;90.10;;;;;;5032365;28;20029;-81
2023/07/03 06:45:04;;;;;;;23.48;4.88;;;17.10;90.10;;;;;;5033450;28;20029;-80
2023/07/03 06:47:30;;;;;;;22.83;5.07;;;17.00;89.90;;;;;;5035076;28;20041;-80
2023/07/03 06:49:56;;;;;;;21.77;4.75;;;17.10;90.00;;;;;;5019413;28;20032;-81
2023/07/03 06:52:21;;;;;;;22.35;4.45;;;17.10;89.80;;;;;;5049150;28;20509;-81
2023/07/03 06:54:47;;;;;;;19.98;4.47;;;17.20;89.70;;;;;;5016766;28;20093;-80
2023/07/03 06:57:13;;;;;;;17.88;3.75;;;17.20;89.50;;;;;;5016358;28;20037;-82
2023/07/03 06:59:38;;;;;;;16.95;4.22;;;17.30;89.20;;;;;;5033967;28;20029;-80
2023/07/03 07:02:06;;;;;;;20.10;4.68;;;17.30;89.00;;;;;;5032649;28;20034;-80
2023/07/03 07:04:33;;;;;;;23.45;4.72;;;17.40;89.00;;;;;;5034036;28;20385;-82
2023/07/03 07:06:58;;;;;;;17.35;4.10;;;17.40;88.90;;;;;;5033933;28;20036;-82
2023/07/03 07:09:24;;;;;;;14.57;3.92;;;17.50;88.70;;;;;;5034262;28;20128;-81
2023/07/03 07:11:50;;;;;;;17.90;4.43;;;17.50;88.40;;;;;;5015928;28;20038;-81
2023/07/03 07:14:17;;;;;;;20.13;4.57;;;17.60;88.20;;;;;;5033597;28;20080;-81
2023/07/03 07:16:43;;;;;;;12.35;2.97;;;17.50;87.90;;;;;;5033767;28;20025;-81
2023/07/03 07:19:11;;;;;;;21.63;3.78;;;17.60;87.80;;;;;;5033477;28;20121;-81
2023/07/03 07:21:38;;;;;;;16.60;3.78;;;17.60;87.50;;;;;;5033731;28;20523;-80
2023/07/03 07:24:17;;;;;;;15.43;3.88;;;17.60;87.40;;;;;;5034575;28;20029;-81
2023/07/03 07:26:43;;;;;;;17.05;3.80;;;17.60;87.20;;;;;;5033990;28;20032;-81
2023/07/03 07:29:09;;;;;;;18.00;4.53;;;17.60;87.00;;;;;;5016859;28;20025;-78
2023/07/03 07:31:38;;;;;;;17.05;4.07;;;17.60;86.90;;;;;;5032381;28;20424;-81
2023/07/03 07:34:06;;;;;;;19.25;3.55;;;17.60;86.70;;;;;;5033531;28;20433;-80
2023/07/03 07:36:32;;;;;;;21.58;4.82;;;17.70;86.70;;;;;;5034411;28;20473;-80
2023/07/03 07:39:00;;;;;;;16.15;3.83;;;17.70;86.40;;;;;;5032494;28;20486;-80
2023/07/03 07:41:26;;;;;;;15.65;3.90;;;17.70;86.30;;;;;;5039998;28;20038;-80
2023/07/03 07:43:52;;;;;;;15.13;3.67;;;17.80;86.30;;;;;;5051364;28;20033;-80
2023/07/03 07:46:18;;;;;;;14.98;3.63;;;17.80;86.30;;;;;;5037563;28;20045;-81
2023/07/03 07:48:46;;;;;;;16.02;3.22;;;17.90;86.20;;;;;;5052425;28;20033;-76
2023/07/03 07:51:12;;;;;;;16.55;3.53;;;17.90;86.00;;;;;;5035322;28;20056;-76
2023/07/03 07:53:38;;;;;;;14.93;3.85;;;18.00;85.70;;;;;;5035375;28;20386;-77
2023/07/03 07:56:07;;;;;;;18.05;4.53;;;18.00;85.60;;;;;;5052030;28;20029;-77
2023/07/03 07:58:33;;;;;;;17.50;4.03;;;18.00;85.60;;;;;;5035374;28;20033;-77
2023/07/03 08:00:59;;;;;;;17.60;4.43;;;18.10;85.50;;;;;;5036805;28;20032;-76
2023/07/03 08:03:26;;;;;;;14.57;3.70;;;18.20;85.30;;;;;;5035317;28;20037;-78
2023/07/03 08:06:00;;;;;;;13.70;3.50;;;18.30;85.10;;;;;;5036657;28;20017;-77
2023/07/03 08:08:26;;;;;;;19.80;3.65;;;18.30;84.70;;;;;;5035351;28;20053;-76
2023/07/03 08:10:56;;;;;;;13.18;3.30;;;18.30;84.30;;;;;;5035146;28;20084;-76
2023/07/03 08:13:22;;;;;;;14.93;3.50;;;18.40;84.60;;;;;;5036356;28;20029;-76
2023/07/03 08:15:48;;;;;;;17.20;3.03;;;18.40;83.80;;;;;;5035085;28;20057;-77
2023/07/03 08:18:15;;;;;;;14.10;3.63;;;18.40;83.80;;;;;;5051771;28;20060;-78
2023/07/03 08:20:42;;;;;;;12.95;3.33;;;18.50;84.20;;;;;;5035089;28;20481;-76
2023/07/03 08:23:08;;;;;;;15.32;2.97;;;18.50;83.30;;;;;;5035656;28;20033;-77
2023/07/03 08:25:34;;;;;;;15.18;3.15;;;18.60;83.20;;;;;;5034999;28;20022;-77
2023/07/03 08:27:59;;;;;;;17.98;2.97;;;18.70;82.80;;;;;;5035175;28;20030;-75
2023/07/03 08:30:25;;;;;;;11.20;2.45;;;18.70;82.40;;;;;;5034848;28;20037;-77
2023/07/03 08:32:51;;;;;;;14.50;3.78;;;18.80;82.20;;;;;;5034796;28;20025;-76
2023/07/03 08:35:17;;;;;;;13.90;2.90;;;18.80;81.70;;;;;;5034864;28;20056;-78
2023/07/03 08:37:43;;;;;;;10.20;2.50;;;18.90;81.40;;;;;;5034623;28;20374;-78
2023/07/03 08:40:10;;;;;;;16.13;2.85;;;18.90;81.10;;;;;;5034738;28;20094;-75
2023/07/03 08:42:43;;;;;;;10.63;2.05;;;19.00;80.90;;;;;;5051089;28;20029;-77
2023/07/03 08:45:12;;;;;;;11.07;2.45;;;19.10;81.20;;;;;;5034563;28;20051;-75
2023/07/03 08:47:39;;;;;;;10.25;2.80;;;19.10;80.20;;;;;;5035744;28;20450;-74
2023/07/03 08:50:06;;;;;;;12.80;2.33;;;19.20;79.30;;;;;;5034371;28;20548;-77
2023/07/03 08:53:11;;;;;;;14.60;2.40;;;19.20;78.50;;;;;;5039104;28;20036;-75
2023/07/03 08:55:43;;;;;;;7.70;1.83;;;19.30;78.20;;;;;;5036751;28;20120;-77
2023/07/03 08:58:09;;;;;;;9.30;2.20;;;19.30;77.50;;;;;;5053186;28;20032;-77
2023/07/03 09:01:08;;;;;;;12.90;1.67;;;19.40;76.80;;;;;;5034112;28;20549;-76
2023/07/03 09:03:58;;;;;;;10.40;1.88;;;19.40;76.20;;;;;;5035464;28;20152;-77
2023/07/03 09:06:43;;;;;;;12.18;1.85;;;19.40;75.40;;;;;;5034249;28;20168;-76
2023/07/03 09:09:51;;;;;;;13.52;1.95;;;19.50;75.40;;;;;;5035240;28;20028;-76
2023/07/03 09:12:46;;;;;;;13.23;3.13;;;19.60;75.40;;;;;;5016618;28;20021;-77
2023/07/03 09:15:17;;;;;;;;;;;19.60;75.20;;;;;;5035708;28;20049;-75
2023/07/03 09:17:44;;;;;;;9.75;2.03;;;19.60;74.90;;;;;;5050551;28;19905;-78
2023/07/03 09:20:12;;;;;;;14.02;2.63;;;19.60;75.10;;;;;;5035212;28;20033;-75
2023/07/03 09:22:42;;;;;;;8.98;1.73;;;19.70;75.60;;;;;;5034120;28;20037;-77
2023/07/03 09:25:16;;;;;;;11.85;2.30;;;19.80;74.00;;;;;;5035077;28;20032;-78
2023/07/03 09:27:44;;;;;;;12.25;2.17;;;19.70;73.70;;;;;;5035066;28;20025;-78
2023/07/03 09:30:12;;;;;;;11.52;2.28;;;19.70;73.10;;;;;;5033802;28;20493;-76
2023/07/03 09:32:37;;;;;;;17.65;2.25;;;19.60;72.70;;;;;;5033701;28;20127;-77
2023/07/03 09:35:05;;;;;;;11.50;2.15;;;19.50;72.60;;;;;;5033704;28;20021;-76
2023/07/03 09:37:35;;;;;;;11.43;1.92;;;19.50;72.50;;;;;;5034822;28;20048;-76
2023/07/03 09:40:00;;;;;;;12.77;2.50;;;19.50;72.20;;;;;;5034866;28;20497;-77
2023/07/03 09:42:27;;;;;;;11.02;2.17;;;19.40;72.40;;;;;;5033675;28;20034;-76
2023/07/03 09:44:52;;;;;;;13.65;2.38;;;19.50;72.70;;;;;;5017167;28;20061;-76
2023/07/03 09:47:25;;;;;;;18.45;2.50;;;19.40;72.70;;;;;;5034659;28;20480;-75
2023/07/03 09:49:51;;;;;;;13.30;1.92;;;19.40;73.00;;;;;;5034571;28;20126;-76
2023/07/03 09:52:17;;;;;;;7.00;2.00;;;19.50;73.00;;;;;;5034316;28;20057;-76
2023/07/03 09:54:45;;;;;;;8.93;1.85;;;19.60;73.10;;;;;;5033207;28;20021;-77
2023/07/03 09:57:25;;;;;;;15.35;3.45;;;19.70;72.90;;;;;;5034714;28;20472;-76
2023/07/03 09:59:53;;;;;;;12.70;2.42;;;19.70;72.60;;;;;;5033402;28;20067;-76
2023/07/03 10:02:22;;;;;;;8.52;1.75;;;19.80;72.50;;;;;;5032965;28;20488;-77
2023/07/03 10:04:48;;;;;;;14.88;2.42;;;19.80;71.80;;;;;;5050070;28;20033;-76
2023/07/03 10:07:16;;;;;;;12.35;2.42;;;19.70;71.50;;;;;;5033600;28;20036;-77
2023/07/03 10:09:43;;;;;;;8.90;2.03;;;19.70;71.10;;;;;;5032861;28;20044;-77
2023/07/03 10:12:31;;;;;;;10.48;2.13;;;19.60;71.40;;;;;;5032898;28;20053;-76
2023/07/03 10:15:20;;;;;;;11.70;1.50;;;19.40;71.60;;;;;;5034225;28;20026;-75
2023/07/03 10:17:57;;;;;;;13.93;1.70;;;19.40;71.50;;;;;;5034233;28;20492;-77
2023/07/03 10:20:28;;;;;;;7.95;1.95;;;19.30;71.30;;;;;;5033696;28;20052;-77
2023/07/03 10:22:56;;;;;;;9.77;2.00;;;19.30;71.30;;;;;;5034147;28;20511;-75
2023/07/03 10:25:29;;;;;;;9.07;1.95;;;19.30;71.70;;;;;;5034101;28;20387;-77
2023/07/03 10:27:58;;;;;;;7.40;1.20;;;19.30;70.20;;;;;;5033965;28;20105;-76
2023/07/03 10:30:28;;;;;;;10.30;1.90;;;19.40;69.60;;;;;;5032633;28;20025;-76
2023/07/03 10:32:56;;;;;;;10.25;1.55;;;19.40;69.60;;;;;;5032395;28;20029;-77
2023/07/03 10:35:30;;;;;;;8.07;1.27;;;19.50;69.30;;;;;;5018281;28;20056;-81
2023/07/03 10:38:13;;;;;;;10.45;1.52;;;19.60;68.90;;;;;;5035759;28;20099;-80
2023/07/03 10:41:08;;;;;;;9.77;2.13;;;19.70;68.30;;;;;;5033998;28;20028;-79
2023/07/03 10:43:46;;;;;;;8.90;1.80;;;19.80;67.30;;;;;;5034160;28;20072;-81
2023/07/03 10:46:21;;;;;;;5.40;1.23;;;19.80;67.40;;;;;;5032728;28;20428;-81
2023/07/03 10:48:49;;;;;;;10.10;1.67;;;19.90;67.10;;;;;;5047481;28;20104;-82
2023/07/03 10:51:23;;;;;;;7.82;1.38;;;19.90;67.00;;;;;;5038803;28;20088;-80
2023/07/03 10:54:02;;;;;;;9.65;1.45;;;19.90;66.50;;;;;;5034723;28;20025;-81
2023/07/03 10:56:40;;;;;;;6.90;1.20;;;19.90;66.40;;;;;;5039696;28;20017;-84
2023/07/03 10:59:28;;;;;;;8.68;1.70;;;19.90;66.20;;;;;;5034576;28;20037;-82
2023/07/03 11:02:12;;;;;;;10.38;1.52;;;20.00;66.00;;;;;;5032645;28;20025;-81
2023/07/03 11:05:19;;;;;;;12.32;2.00;;;20.00;65.60;;;;;;5033641;28;20142;-81
2023/07/03 11:07:50;;;;;;;8.32;1.95;;;20.20;65.40;;;;;;5032742;28;20034;-80
2023/07/03 11:10:21;;;;;;;9.05;1.80;;;20.30;64.80;;;;;;5032623;28;20132;-77
2023/07/03 11:13:06;;;;;;;10.95;2.08;;;20.30;64.40;;;;;;5032830;28;20436;-80
2023/07/03 11:15:55;;;;;;;12.40;1.90;;;20.20;64.50;;;;;;5033642;28;20075;-79
2023/07/03 11:18:55;;;;;;;12.18;1.20;;;20.20;64.30;;;;;;5031989;28;20076;-80
2023/07/03 11:21:29;;;;;;;5.57;1.00;;;20.20;64.10;;;;;;5034033;28;20116;-81
2023/07/03 11:24:20;;;;;;;8.82;1.65;;;20.20;64.00;;;;;;5033817;28;20088;-81
2023/07/03 11:26:50;;;;;;;8.13;1.17;;;20.20;63.30;;;;;;5034391;28;20432;-82
2023/07/03 11:29:16;;;;;;;6.82;1.17;;;20.20;63.30;;;;;;5034360;28;20418;-79
2023/07/03 11:31:45;;;;;;;7.50;1.40;;;20.20;63.10;;;;;;5017162;28;20038;-82
2023/07/03 11:34:14;;;;;;;5.88;1.23;;;20.20;63.20;;;;;;5034047;28;20083;-79
2023/07/03 11:36:49;;;;;;;7.22;1.30;;;20.40;62.80;;;;;;5033577;28;20101;-82
2023/07/03 11:39:20;;;;;;;5.72;1.00;;;20.40;62.60;;;;;;5032226;28;20053;-81
2023/07/03 11:41:55;;;;;;;7.70;1.30;;;20.70;62.40;;;;;;5032286;28;20512;-80
2023/07/03 11:44:39;;;;;;;6.35;1.10;;;20.90;61.70;;;;;;5033145;28;20033;-84
2023/07/03 11:47:30;;;;;;;8.20;1.23;;;21.00;61.00;;;;;;5032312;28;20113;-82
2023/07/03 11:50:05;;;;;;;9.63;1.30;;;21.20;60.70;;;;;;5029451;28;20128;-79
2023/07/03 11:52:34;;;;;;;9.57;1.30;;;21.20;60.50;;;;;;5032074;28;20072;-81
2023/07/03 11:55:05;;;;;;;6.35;1.27;;;21.20;60.30;;;;;;5033622;28;20079;-79
2023/07/03 11:57:34;;;;;;;7.45;1.70;;;21.30;60.40;;;;;;5032135;28;20014;-82
2023/07/03 12:00:17;;;;;;;9.15;1.55;;;21.40;60.00;;;;;;5033147;28;20036;-82
2023/07/03 12:02:56;;;;;;;8.93;1.60;;;21.40;59.60;;;;;;5033225;28;20677;-81
2023/07/03 12:08:18;;;;;;;10.45;1.70;;;21.30;59.50;;;;;;5033860;28;20079;-81
2023/07/03 12:10:46;;;;;;;8.80;1.30;;;21.10;59.60;;;;;;5033331;28;20473;-82
2023/07/03 12:13:40;;;;;;;11.02;1.92;;;20.90;59.90;;;;;;5031953;28;20017;-80
2023/07/03 12:16:19;;;;;;;7.07;1.60;;;20.80;60.30;;;;;;5031742;28;20026;-83
2023/07/03 12:18:54;;;;;;;9.57;1.50;;;20.80;60.80;;;;;;5034050;28;20120;-80
2023/07/03 12:21:21;;;;;;;10.23;1.77;;;20.70;61.10;;;;;;5034003;28;20489;-82
2023/07/03 12:23:46;;;;;;;7.50;1.15;;;20.90;61.50;;;;;;5032238;28;20478;-82
2023/07/03 12:26:18;;;;;;;10.68;1.73;;;21.20;61.50;;;;;;5032413;28;20045;-80
2023/07/03 12:28:45;;;;;;;11.73;2.00;;;21.30;60.90;;;;;;5037112;28;20033;-80
2023/07/03 12:31:16;;;;;;;13.68;2.15;;;21.30;60.00;;;;;;5036470;28;20410;-81
2023/07/03 12:33:57;;;;;;;4.95;1.00;;;21.40;60.00;;;;;;5037696;28;20436;-80
2023/07/03 12:36:29;;;;;;;7.93;1.33;;;21.50;60.00;;;;;;5037354;28;20032;-83
2023/07/03 12:38:55;;;;;;;4.68;1.02;;;21.70;59.50;;;;;;5034897;28;20478;-81
2023/07/03 12:41:23;;;;;;;4.70;1.00;;;22.00;59.50;;;;;;5036752;28;20041;-79
2023/07/03 12:43:48;;;;;;;7.65;1.58;;;22.10;57.30;;;;;;5036122;28;20064;-83
2023/07/03 12:46:25;;;;;;;5.57;1.20;;;22.30;56.00;;;;;;5018668;28;20068;-83
2023/07/03 12:49:08;;;;;;;5.97;1.20;;;22.30;55.20;;;;;;5035821;28;20033;-82
2023/07/03 12:51:39;;;;;;;4.13;0.93;;;22.40;54.90;;;;;;5034701;28;20124;-82
2023/07/03 12:54:11;;;;;;;5.22;0.90;;;22.50;54.60;;;;;;5035283;28;20072;-81